13°C
Porth, Newquay, Cornwall. UK  Tell A Friend
 Ad **Ad
Updated17/10/2017 17:30 
 


More METAR Reports From


Metar Station     Metar Station     Metar Station     Metar Station     Metar Station
EGBB Birmingham     EGBE Coventry     EGLL London Heathrow     EGKK London Gatwick     EGGP Liverpool
EGGW Luton     EGNX East Midlands     EGLC London City     EGCC Mancester Intl     EGSS Stanstead
Local Metars Here                                
EGBB - Birmingham Airpo, United Kingdom
Updated: 17/10/2017 17:20
Few Clouds
Few Clouds
 Wind from W
Wind: W 7 mph , 11 km/h, 6 kts
Temperature: 14°C
Dew Point: 4°C
Humidity: 51%
Barometer: 1016 hPa
Clouds: Few Clouds
Visibility: 6 miles , 10 km
Cloud details: Few Clouds 1219 m
2017/10/17 16:20 EGBB 171620Z 27006KT 230V300 9999 FEW040 14/04 Q1016
EGBE - Coventry Airport, United Kingdom
Updated: 18/07/2017 14:50

NOT Current
Clear
Clear
 Wind from E
Wind: E 16 mph , 26 km/h, 14 kts
Temperature: 27°C
Heat Index: 27°C
Dew Point: 14°C
Humidity: 45%
Barometer: 1015 hPa
Summary: Clear
Visibility: greater than 7 miles , 10 km
2017/07/18 13:50 EGBE 181350Z 10014KT 060V120 CAVOK 27/14 Q1015
 
EGLL - London/Heathrow, United Kingdom
Updated: 17/10/2017 17:20
Light rain, Clear
Light rain, Clear
 Wind from W
Wind: W 7 mph , 11 km/h, 6 kts
Temperature: 13°C
Dew Point: 8°C
Humidity: 72%
Barometer: 1018 hPa
Summary: Light Rain
Clouds: Clear
Visibility: 6 miles , 10 km
2017/10/17 16:20 EGLL 171620Z AUTO 27006KT 9999 -RA NCD 13/08 Q1018
EGKK - London/Gatwick A, United Kingdom
Updated: 17/10/2017 17:20
Clear
Clear
 Wind from varies
Wind: varies 3 mph , 6 km/h, 3 kts
Temperature: 14°C
Dew Point: 7°C
Humidity: 63%
Barometer: 1017 hPa
Summary: Clear
Visibility: greater than 7 miles , 10 km
2017/10/17 16:20 EGKK 171620Z VRB03KT CAVOK 14/07 Q1017
 
EGGP - Liverpool Airpor, United Kingdom
Updated: 17/10/2017 17:20
Few Clouds
Few Clouds
 Wind from W
Wind: W 10 mph , 17 km/h, 9 kts
Temperature: 12°C
Dew Point: 7°C
Humidity: 72%
Barometer: 1016 hPa
Clouds: Few Clouds
Visibility: 6 miles , 10 km
Cloud details: Few Clouds 1036 m
2017/10/17 16:20 EGGP 171620Z 27009KT 9999 FEW034 12/07 Q1016
EGGW - Luton Airport, United Kingdom
Updated: 17/10/2017 17:20
Clear
Clear
 Wind from S
Wind: S 5 mph , 7 km/h, 4 kts
Temperature: 12°C
Dew Point: 9°C
Humidity: 82%
Barometer: 1017 hPa
Clouds: Clear
Visibility: 6 miles , 10 km
2017/10/17 16:20 EGGW 171620Z AUTO 19004KT 160V230 9999 NCD 12/09 Q1017
 
EGNX - East Midlands, United Kingdom
Updated: 17/10/2017 17:20
Clear
Clear
 Wind from W
Wind: W 9 mph , 15 km/h, 8 kts
Temperature: 12°C
Dew Point: 6°C
Humidity: 67%
Barometer: 1016 hPa
Summary: Clear
Visibility: greater than 7 miles , 10 km
2017/10/17 16:20 EGNX 171620Z 27008KT CAVOK 12/06 Q1016
EGLC - London City Airp, United Kingdom
Updated: 17/10/2017 17:20
Clear
Clear
 Wind from WSW
Wind: WSW 8 mph , 13 km/h, 7 kts
Temperature: 15°C
Dew Point: 6°C
Humidity: 55%
Barometer: 1018 hPa
Clouds: Clear
Visibility: 6 miles , 10 km
2017/10/17 16:20 EGLC 171620Z AUTO 25007KT 210V280 9999 NCD 15/06 Q1018
 
EGCC - Manchester Intl, United Kingdom
Updated: 17/10/2017 17:20
Few Clouds
Few Clouds
 Wind from WSW
Wind: WSW 7 mph , 11 km/h, 6 kts
Temperature: 13°C
Dew Point: 6°C
Humidity: 63%
Barometer: 1016 hPa
Clouds: Few Clouds
Visibility: 6 miles , 10 km
Cloud details: Few Clouds 1158 m
2017/10/17 16:20 EGCC 171620Z AUTO 25006KT 9999 FEW038 13/06 Q1016
EGSS - Stansted Airport, United Kingdom
Updated: 17/10/2017 17:20
Light rain, Thunderstorm
Light rain, Thunderstorm
 Wind from WSW
Wind: WSW 7 mph , 11 km/h, 6 kts
Temperature: 12°C
Dew Point: 8°C
Humidity: 77%
Barometer: 1017 hPa
Summary: Light Rain
Clouds: Thunderstorm
Visibility: 6 miles , 10 km
2017/10/17 16:20 EGSS 171620Z AUTO 24006KT 9999 -RA //////TCU 12/08 Q1017

Metar, brief description

METAR is a format for reporting weather information. A METAR weather report is predominantly used by pilots in fulfillment of a part of a pre-flight weather briefing, and by meteorologists, who use aggregated METAR information to assist in weather forecasting.

Raw METAR is the most popular format in the world for the transmission of weather data. Each METAR report contains essential information about the current weather conditions: Temperature, Dew Point, Barometric Pressure, Wind Speed and Direction, Visibility, Clouds Cover, Current Weather (Rain, Thunderstorms, Hail, Snow and so on...), here is an example of a raw metar report for EGHQ (Newquay airport).
METAR not available